sensor_id;sensor_type;location;lat;lon;timestamp;P1;durP1;ratioP1;P2;durP2;ratioP2
18383;SDS011;9318;48.644;9.456;2022-08-01T00:01:36;4.18;;;3.35;;
18383;SDS011;9318;48.644;9.456;2022-08-01T00:04:03;6.07;;;3.50;;
18383;SDS011;9318;48.644;9.456;2022-08-01T00:06:30;6.13;;;4.05;;
18383;SDS011;9318;48.644;9.456;2022-08-01T00:08:58;5.13;;;3.47;;
18383;SDS011;9318;48.644;9.456;2022-08-01T00:11:25;8.07;;;3.65;;
18383;SDS011;9318;48.644;9.456;2022-08-01T00:13:54;4.68;;;3.70;;
18383;SDS011;9318;48.644;9.456;2022-08-01T00:16:21;5.80;;;4.53;;
18383;SDS011;9318;48.644;9.456;2022-08-01T00:18:48;4.80;;;3.72;;
18383;SDS011;9318;48.644;9.456;2022-08-01T00:21:16;7.05;;;4.32;;
18383;SDS011;9318;48.644;9.456;2022-08-01T00:23:43;4.45;;;3.70;;
18383;SDS011;9318;48.644;9.456;2022-08-01T00:26:11;7.95;;;4.40;;
18383;SDS011;9318;48.644;9.456;2022-08-01T00:28:38;5.07;;;3.58;;
18383;SDS011;9318;48.644;9.456;2022-08-01T00:31:07;7.47;;;3.50;;
18383;SDS011;9318;48.644;9.456;2022-08-01T00:33:34;5.28;;;3.60;;
18383;SDS011;9318;48.644;9.456;2022-08-01T00:36:01;5.00;;;3.50;;
18383;SDS011;9318;48.644;9.456;2022-08-01T00:38:29;5.25;;;4.20;;
18383;SDS011;9318;48.644;9.456;2022-08-01T00:40:57;6.60;;;3.90;;
18383;SDS011;9318;48.644;9.456;2022-08-01T00:43:24;6.80;;;4.00;;
18383;SDS011;9318;48.644;9.456;2022-08-01T00:45:51;5.30;;;3.67;;
18383;SDS011;9318;48.644;9.456;2022-08-01T00:48:20;4.20;;;3.03;;
18383;SDS011;9318;48.644;9.456;2022-08-01T00:50:47;5.75;;;3.72;;
18383;SDS011;9318;48.644;9.456;2022-08-01T00:53:14;4.68;;;3.00;;
18383;SDS011;9318;48.644;9.456;2022-08-01T00:55:42;5.55;;;3.80;;
18383;SDS011;9318;48.644;9.456;2022-08-01T00:58:09;5.03;;;3.00;;
18383;SDS011;9318;48.644;9.456;2022-08-01T01:00:37;6.50;;;3.75;;
18383;SDS011;9318;48.644;9.456;2022-08-01T01:03:04;4.63;;;3.67;;
18383;SDS011;9318;48.644;9.456;2022-08-01T01:05:34;4.68;;;3.50;;
18383;SDS011;9318;48.644;9.456;2022-08-01T01:08:19;5.85;;;3.20;;
18383;SDS011;9318;48.644;9.456;2022-08-01T01:10:52;3.67;;;3.20;;
18383;SDS011;9318;48.644;9.456;2022-08-01T01:13:26;4.45;;;3.10;;
18383;SDS011;9318;48.644;9.456;2022-08-01T01:16:00;7.65;;;3.13;;
18383;SDS011;9318;48.644;9.456;2022-08-01T01:18:33;4.53;;;3.30;;
18383;SDS011;9318;48.644;9.456;2022-08-01T01:21:06;5.15;;;3.80;;
18383;SDS011;9318;48.644;9.456;2022-08-01T01:23:46;4.65;;;3.30;;
18383;SDS011;9318;48.644;9.456;2022-08-01T01:26:28;3.90;;;2.88;;
18383;SDS011;9318;48.644;9.456;2022-08-01T01:29:07;3.70;;;3.30;;
18383;SDS011;9318;48.644;9.456;2022-08-01T01:31:40;5.85;;;3.28;;
18383;SDS011;9318;48.644;9.456;2022-08-01T01:34:11;5.38;;;3.65;;
18383;SDS011;9318;48.644;9.456;2022-08-01T01:36:41;5.20;;;3.72;;
18383;SDS011;9318;48.644;9.456;2022-08-01T01:39:12;5.22;;;3.50;;
18383;SDS011;9318;48.644;9.456;2022-08-01T01:41:41;4.10;;;3.25;;
18383;SDS011;9318;48.644;9.456;2022-08-01T01:44:13;7.35;;;3.45;;
18383;SDS011;9318;48.644;9.456;2022-08-01T01:46:43;4.05;;;3.40;;
18383;SDS011;9318;48.644;9.456;2022-08-01T01:49:11;3.50;;;3.20;;
18383;SDS011;9318;48.644;9.456;2022-08-01T01:51:38;4.68;;;3.45;;
18383;SDS011;9318;48.644;9.456;2022-08-01T01:54:08;5.25;;;3.60;;
18383;SDS011;9318;48.644;9.456;2022-08-01T01:56:36;5.90;;;3.28;;
18383;SDS011;9318;48.644;9.456;2022-08-01T01:59:15;4.40;;;3.13;;
18383;SDS011;9318;48.644;9.456;2022-08-01T02:01:46;4.25;;;2.97;;
18383;SDS011;9318;48.644;9.456;2022-08-01T02:04:15;4.30;;;3.40;;
18383;SDS011;9318;48.644;9.456;2022-08-01T02:06:44;6.00;;;3.15;;
18383;SDS011;9318;48.644;9.456;2022-08-01T02:09:14;4.82;;;3.60;;
18383;SDS011;9318;48.644;9.456;2022-08-01T02:11:44;4.90;;;3.30;;
18383;SDS011;9318;48.644;9.456;2022-08-01T02:14:15;4.50;;;3.30;;
18383;SDS011;9318;48.644;9.456;2022-08-01T02:16:44;5.22;;;3.10;;
18383;SDS011;9318;48.644;9.456;2022-08-01T02:19:14;4.53;;;2.90;;
18383;SDS011;9318;48.644;9.456;2022-08-01T02:21:45;4.60;;;2.90;;
18383;SDS011;9318;48.644;9.456;2022-08-01T02:24:17;5.00;;;2.88;;
18383;SDS011;9318;48.644;9.456;2022-08-01T02:26:50;5.45;;;3.03;;
18383;SDS011;9318;48.644;9.456;2022-08-01T02:29:21;5.78;;;3.10;;
18383;SDS011;9318;48.644;9.456;2022-08-01T02:31:53;14.20;;;4.43;;
18383;SDS011;9318;48.644;9.456;2022-08-01T02:34:21;7.75;;;3.40;;
18383;SDS011;9318;48.644;9.456;2022-08-01T02:36:51;6.93;;;3.33;;
18383;SDS011;9318;48.644;9.456;2022-08-01T02:39:21;10.93;;;4.05;;
18383;SDS011;9318;48.644;9.456;2022-08-01T02:41:52;4.88;;;3.05;;
18383;SDS011;9318;48.644;9.456;2022-08-01T02:44:26;8.00;;;3.95;;
18383;SDS011;9318;48.644;9.456;2022-08-01T02:46:57;4.90;;;3.10;;
18383;SDS011;9318;48.644;9.456;2022-08-01T02:49:29;6.75;;;3.08;;
18383;SDS011;9318;48.644;9.456;2022-08-01T02:51:59;7.13;;;3.45;;
18383;SDS011;9318;48.644;9.456;2022-08-01T02:54:30;6.57;;;3.22;;
18383;SDS011;9318;48.644;9.456;2022-08-01T02:56:59;7.63;;;3.42;;
18383;SDS011;9318;48.644;9.456;2022-08-01T02:59:30;3.97;;;3.17;;
18383;SDS011;9318;48.644;9.456;2022-08-01T03:02:00;6.40;;;3.45;;
18383;SDS011;9318;48.644;9.456;2022-08-01T03:04:30;7.57;;;3.42;;
18383;SDS011;9318;48.644;9.456;2022-08-01T03:07:00;5.15;;;3.30;;
18383;SDS011;9318;48.644;9.456;2022-08-01T03:09:30;4.22;;;3.10;;
18383;SDS011;9318;48.644;9.456;2022-08-01T03:12:00;4.30;;;3.05;;
18383;SDS011;9318;48.644;9.456;2022-08-01T03:14:32;4.65;;;3.15;;
18383;SDS011;9318;48.644;9.456;2022-08-01T03:17:02;4.88;;;3.60;;
18383;SDS011;9318;48.644;9.456;2022-08-01T03:19:31;4.20;;;3.50;;
18383;SDS011;9318;48.644;9.456;2022-08-01T03:22:01;6.10;;;3.38;;
18383;SDS011;9318;48.644;9.456;2022-08-01T03:24:31;6.25;;;3.70;;
18383;SDS011;9318;48.644;9.456;2022-08-01T03:26:59;5.70;;;3.58;;
18383;SDS011;9318;48.644;9.456;2022-08-01T03:29:28;6.82;;;3.78;;
18383;SDS011;9318;48.644;9.456;2022-08-01T03:31:59;4.65;;;3.40;;
18383;SDS011;9318;48.644;9.456;2022-08-01T03:34:28;5.13;;;3.28;;
18383;SDS011;9318;48.644;9.456;2022-08-01T03:36:56;5.03;;;3.42;;
18383;SDS011;9318;48.644;9.456;2022-08-01T03:39:31;5.93;;;3.20;;
18383;SDS011;9318;48.644;9.456;2022-08-01T03:42:05;4.05;;;3.35;;
18383;SDS011;9318;48.644;9.456;2022-08-01T03:44:39;4.78;;;3.33;;
18383;SDS011;9318;48.644;9.456;2022-08-01T03:47:09;5.88;;;3.40;;
18383;SDS011;9318;48.644;9.456;2022-08-01T03:49:40;5.10;;;3.55;;
18383;SDS011;9318;48.644;9.456;2022-08-01T03:52:10;5.25;;;3.30;;
18383;SDS011;9318;48.644;9.456;2022-08-01T03:54:40;4.80;;;3.38;;
18383;SDS011;9318;48.644;9.456;2022-08-01T03:57:11;5.60;;;3.60;;
18383;SDS011;9318;48.644;9.456;2022-08-01T03:59:39;4.13;;;3.30;;
18383;SDS011;9318;48.644;9.456;2022-08-01T04:02:07;4.97;;;3.30;;
18383;SDS011;9318;48.644;9.456;2022-08-01T04:04:36;6.50;;;3.58;;
18383;SDS011;9318;48.644;9.456;2022-08-01T04:07:04;4.53;;;3.30;;
18383;SDS011;9318;48.644;9.456;2022-08-01T04:09:32;5.70;;;3.67;;
18383;SDS011;9318;48.644;9.456;2022-08-01T04:12:00;5.88;;;3.70;;
18383;SDS011;9318;48.644;9.456;2022-08-01T04:14:27;5.80;;;3.55;;
18383;SDS011;9318;48.644;9.456;2022-08-01T04:16:55;8.00;;;3.58;;
18383;SDS011;9318;48.644;9.456;2022-08-01T04:19:23;7.90;;;3.95;;
18383;SDS011;9318;48.644;9.456;2022-08-01T04:21:51;6.95;;;3.50;;
18383;SDS011;9318;48.644;9.456;2022-08-01T04:24:18;5.22;;;3.40;;
18383;SDS011;9318;48.644;9.456;2022-08-01T04:26:48;5.45;;;3.42;;
18383;SDS011;9318;48.644;9.456;2022-08-01T04:29:17;6.80;;;3.65;;
18383;SDS011;9318;48.644;9.456;2022-08-01T04:31:47;5.38;;;3.70;;
18383;SDS011;9318;48.644;9.456;2022-08-01T04:34:17;5.78;;;3.38;;
18383;SDS011;9318;48.644;9.456;2022-08-01T04:36:49;5.40;;;3.88;;
18383;SDS011;9318;48.644;9.456;2022-08-01T04:39:19;8.02;;;4.13;;
18383;SDS011;9318;48.644;9.456;2022-08-01T04:41:52;6.20;;;3.90;;
18383;SDS011;9318;48.644;9.456;2022-08-01T04:44:22;7.60;;;4.00;;
18383;SDS011;9318;48.644;9.456;2022-08-01T04:46:50;7.78;;;3.47;;
18383;SDS011;9318;48.644;9.456;2022-08-01T04:49:19;5.00;;;3.58;;
18383;SDS011;9318;48.644;9.456;2022-08-01T04:51:51;7.15;;;3.67;;
18383;SDS011;9318;48.644;9.456;2022-08-01T04:54:23;8.50;;;4.10;;
18383;SDS011;9318;48.644;9.456;2022-08-01T04:56:50;7.30;;;4.07;;
18383;SDS011;9318;48.644;9.456;2022-08-01T04:59:21;6.13;;;3.88;;
18383;SDS011;9318;48.644;9.456;2022-08-01T05:02:06;5.38;;;3.85;;
18383;SDS011;9318;48.644;9.456;2022-08-01T05:04:34;5.90;;;3.92;;
18383;SDS011;9318;48.644;9.456;2022-08-01T05:07:03;7.25;;;3.80;;
18383;SDS011;9318;48.644;9.456;2022-08-01T05:09:31;7.43;;;3.90;;
18383;SDS011;9318;48.644;9.456;2022-08-01T05:11:58;6.90;;;3.85;;
18383;SDS011;9318;48.644;9.456;2022-08-01T05:14:27;7.95;;;4.32;;
18383;SDS011;9318;48.644;9.456;2022-08-01T05:16:57;6.90;;;3.75;;
18383;SDS011;9318;48.644;9.456;2022-08-01T05:19:24;7.80;;;3.83;;
18383;SDS011;9318;48.644;9.456;2022-08-01T05:21:52;5.78;;;3.65;;
18383;SDS011;9318;48.644;9.456;2022-08-01T05:24:21;8.27;;;4.05;;
18383;SDS011;9318;48.644;9.456;2022-08-01T05:26:48;8.48;;;4.00;;
18383;SDS011;9318;48.644;9.456;2022-08-01T05:29:16;7.00;;;4.22;;
18383;SDS011;9318;48.644;9.456;2022-08-01T05:31:43;5.82;;;4.10;;
18383;SDS011;9318;48.644;9.456;2022-08-01T05:34:10;6.65;;;3.80;;
18383;SDS011;9318;48.644;9.456;2022-08-01T05:36:37;7.35;;;3.90;;
18383;SDS011;9318;48.644;9.456;2022-08-01T05:39:05;9.25;;;3.92;;
18383;SDS011;9318;48.644;9.456;2022-08-01T05:41:35;8.55;;;4.05;;
18383;SDS011;9318;48.644;9.456;2022-08-01T05:44:02;5.65;;;4.03;;
18383;SDS011;9318;48.644;9.456;2022-08-01T05:46:30;7.07;;;4.10;;
18383;SDS011;9318;48.644;9.456;2022-08-01T05:48:58;6.88;;;3.90;;
18383;SDS011;9318;48.644;9.456;2022-08-01T05:51:26;5.65;;;3.80;;
18383;SDS011;9318;48.644;9.456;2022-08-01T05:53:54;6.78;;;4.10;;
18383;SDS011;9318;48.644;9.456;2022-08-01T05:56:22;6.93;;;3.80;;
18383;SDS011;9318;48.644;9.456;2022-08-01T05:58:50;5.18;;;3.60;;
18383;SDS011;9318;48.644;9.456;2022-08-01T06:01:19;7.00;;;3.50;;
18383;SDS011;9318;48.644;9.456;2022-08-01T06:03:46;6.32;;;3.78;;
18383;SDS011;9318;48.644;9.456;2022-08-01T06:06:13;6.20;;;3.55;;
18383;SDS011;9318;48.644;9.456;2022-08-01T06:08:41;5.40;;;3.53;;
18383;SDS011;9318;48.644;9.456;2022-08-01T06:11:08;4.63;;;3.75;;
18383;SDS011;9318;48.644;9.456;2022-08-01T06:13:35;5.75;;;3.50;;
18383;SDS011;9318;48.644;9.456;2022-08-01T06:16:04;4.55;;;3.30;;
18383;SDS011;9318;48.644;9.456;2022-08-01T06:18:32;4.57;;;3.38;;
18383;SDS011;9318;48.644;9.456;2022-08-01T06:20:59;5.35;;;3.22;;
18383;SDS011;9318;48.644;9.456;2022-08-01T06:23:26;4.75;;;3.20;;
18383;SDS011;9318;48.644;9.456;2022-08-01T06:25:53;6.28;;;3.30;;
18383;SDS011;9318;48.644;9.456;2022-08-01T06:28:21;3.88;;;3.28;;
18383;SDS011;9318;48.644;9.456;2022-08-01T06:30:48;4.78;;;3.17;;
18383;SDS011;9318;48.644;9.456;2022-08-01T06:33:17;7.80;;;3.38;;
18383;SDS011;9318;48.644;9.456;2022-08-01T06:35:44;4.53;;;3.08;;
18383;SDS011;9318;48.644;9.456;2022-08-01T06:38:11;8.80;;;3.67;;
18383;SDS011;9318;48.644;9.456;2022-08-01T06:40:38;6.85;;;3.10;;
18383;SDS011;9318;48.644;9.456;2022-08-01T06:43:06;5.25;;;3.15;;
18383;SDS011;9318;48.644;9.456;2022-08-01T06:45:33;6.18;;;3.35;;
18383;SDS011;9318;48.644;9.456;2022-08-01T06:48:01;4.45;;;3.00;;
18383;SDS011;9318;48.644;9.456;2022-08-01T06:50:31;6.72;;;3.60;;
18383;SDS011;9318;48.644;9.456;2022-08-01T06:53:00;4.07;;;3.13;;
18383;SDS011;9318;48.644;9.456;2022-08-01T06:55:28;4.72;;;3.50;;
18383;SDS011;9318;48.644;9.456;2022-08-01T06:57:55;5.63;;;3.13;;
18383;SDS011;9318;48.644;9.456;2022-08-01T07:00:23;5.75;;;3.33;;
18383;SDS011;9318;48.644;9.456;2022-08-01T07:02:52;7.57;;;3.40;;
18383;SDS011;9318;48.644;9.456;2022-08-01T07:05:22;6.97;;;3.15;;
18383;SDS011;9318;48.644;9.456;2022-08-01T07:07:51;7.35;;;3.70;;
18383;SDS011;9318;48.644;9.456;2022-08-01T07:10:18;4.72;;;3.00;;
18383;SDS011;9318;48.644;9.456;2022-08-01T07:12:45;6.18;;;3.55;;
18383;SDS011;9318;48.644;9.456;2022-08-01T07:15:12;7.68;;;3.47;;
18383;SDS011;9318;48.644;9.456;2022-08-01T07:17:41;5.97;;;3.45;;
18383;SDS011;9318;48.644;9.456;2022-08-01T07:20:09;4.57;;;3.10;;
18383;SDS011;9318;48.644;9.456;2022-08-01T07:22:38;5.03;;;3.60;;
18383;SDS011;9318;48.644;9.456;2022-08-01T07:25:07;4.20;;;3.33;;
18383;SDS011;9318;48.644;9.456;2022-08-01T07:27:35;5.88;;;3.38;;
18383;SDS011;9318;48.644;9.456;2022-08-01T07:30:03;10.57;;;3.45;;
18383;SDS011;9318;48.644;9.456;2022-08-01T07:32:31;5.78;;;3.22;;
18383;SDS011;9318;48.644;9.456;2022-08-01T07:35:00;9.77;;;3.53;;
18383;SDS011;9318;48.644;9.456;2022-08-01T07:37:27;6.55;;;3.25;;
18383;SDS011;9318;48.644;9.456;2022-08-01T07:39:54;5.78;;;3.10;;
18383;SDS011;9318;48.644;9.456;2022-08-01T07:42:23;7.22;;;3.13;;
18383;SDS011;9318;48.644;9.456;2022-08-01T07:44:50;6.80;;;3.33;;
18383;SDS011;9318;48.644;9.456;2022-08-01T07:47:22;3.47;;;2.90;;
18383;SDS011;9318;48.644;9.456;2022-08-01T07:49:50;4.82;;;3.15;;
18383;SDS011;9318;48.644;9.456;2022-08-01T07:52:18;3.42;;;2.70;;
18383;SDS011;9318;48.644;9.456;2022-08-01T07:54:45;4.40;;;3.08;;
18383;SDS011;9318;48.644;9.456;2022-08-01T07:57:13;4.10;;;3.00;;
18383;SDS011;9318;48.644;9.456;2022-08-01T07:59:41;4.60;;;2.88;;
18383;SDS011;9318;48.644;9.456;2022-08-01T08:02:09;3.63;;;2.95;;
18383;SDS011;9318;48.644;9.456;2022-08-01T08:04:36;4.28;;;3.00;;
18383;SDS011;9318;48.644;9.456;2022-08-01T08:07:03;3.30;;;2.40;;
18383;SDS011;9318;48.644;9.456;2022-08-01T08:09:31;3.92;;;2.58;;
18383;SDS011;9318;48.644;9.456;2022-08-01T08:11:58;4.07;;;2.30;;
18383;SDS011;9318;48.644;9.456;2022-08-01T08:14:25;7.15;;;2.78;;
18383;SDS011;9318;48.644;9.456;2022-08-01T08:16:55;4.43;;;2.42;;
18383;SDS011;9318;48.644;9.456;2022-08-01T08:19:23;4.30;;;2.63;;
18383;SDS011;9318;48.644;9.456;2022-08-01T08:21:50;3.47;;;2.45;;
18383;SDS011;9318;48.644;9.456;2022-08-01T08:24:17;4.75;;;2.83;;
18383;SDS011;9318;48.644;9.456;2022-08-01T08:26:49;3.50;;;2.50;;
18383;SDS011;9318;48.644;9.456;2022-08-01T08:29:18;3.00;;;2.63;;
18383;SDS011;9318;48.644;9.456;2022-08-01T08:31:46;3.55;;;2.60;;
18383;SDS011;9318;48.644;9.456;2022-08-01T08:34:14;5.15;;;2.85;;
18383;SDS011;9318;48.644;9.456;2022-08-01T08:36:41;5.55;;;2.70;;
18383;SDS011;9318;48.644;9.456;2022-08-01T08:39:09;4.90;;;2.90;;
18383;SDS011;9318;48.644;9.456;2022-08-01T08:41:36;3.15;;;2.63;;
18383;SDS011;9318;48.644;9.456;2022-08-01T08:44:04;2.92;;;2.63;;
18383;SDS011;9318;48.644;9.456;2022-08-01T08:46:33;3.10;;;2.60;;
18383;SDS011;9318;48.644;9.456;2022-08-01T08:49:06;4.78;;;2.65;;
18383;SDS011;9318;48.644;9.456;2022-08-01T08:51:37;3.58;;;2.83;;
18383;SDS011;9318;48.644;9.456;2022-08-01T08:54:06;4.10;;;2.83;;
18383;SDS011;9318;48.644;9.456;2022-08-01T08:56:37;5.25;;;2.85;;
18383;SDS011;9318;48.644;9.456;2022-08-01T08:59:05;7.45;;;3.10;;
18383;SDS011;9318;48.644;9.456;2022-08-01T09:01:32;3.00;;;2.67;;
18383;SDS011;9318;48.644;9.456;2022-08-01T09:04:00;3.60;;;2.83;;
18383;SDS011;9318;48.644;9.456;2022-08-01T09:06:28;4.18;;;2.80;;
18383;SDS011;9318;48.644;9.456;2022-08-01T09:08:57;4.53;;;2.78;;
18383;SDS011;9318;48.644;9.456;2022-08-01T09:11:25;5.18;;;2.67;;
18383;SDS011;9318;48.644;9.456;2022-08-01T09:14:06;3.25;;;2.92;;
18383;SDS011;9318;48.644;9.456;2022-08-01T09:16:35;5.22;;;3.10;;
18383;SDS011;9318;48.644;9.456;2022-08-01T09:19:07;3.75;;;2.78;;
18383;SDS011;9318;48.644;9.456;2022-08-01T09:21:37;5.35;;;2.80;;
18383;SDS011;9318;48.644;9.456;2022-08-01T09:24:14;3.40;;;2.80;;
18383;SDS011;9318;48.644;9.456;2022-08-01T09:26:42;5.65;;;2.90;;
18383;SDS011;9318;48.644;9.456;2022-08-01T09:29:17;4.13;;;3.03;;
18383;SDS011;9318;48.644;9.456;2022-08-01T09:31:47;4.15;;;3.15;;
18383;SDS011;9318;48.644;9.456;2022-08-01T09:34:14;5.78;;;3.20;;
18383;SDS011;9318;48.644;9.456;2022-08-01T09:36:43;3.55;;;2.85;;
18383;SDS011;9318;48.644;9.456;2022-08-01T09:39:18;5.95;;;2.83;;
18383;SDS011;9318;48.644;9.456;2022-08-01T09:41:46;3.38;;;3.03;;
18383;SDS011;9318;48.644;9.456;2022-08-01T09:44:14;5.07;;;3.15;;
18383;SDS011;9318;48.644;9.456;2022-08-01T09:46:53;5.13;;;3.25;;
18383;SDS011;9318;48.644;9.456;2022-08-01T09:49:28;6.47;;;3.03;;
18383;SDS011;9318;48.644;9.456;2022-08-01T09:51:57;6.03;;;2.95;;
18383;SDS011;9318;48.644;9.456;2022-08-01T09:54:31;4.80;;;3.17;;
18383;SDS011;9318;48.644;9.456;2022-08-01T09:57:13;4.22;;;3.17;;
18383;SDS011;9318;48.644;9.456;2022-08-01T09:59:42;6.03;;;3.28;;
18383;SDS011;9318;48.644;9.456;2022-08-01T10:02:10;4.18;;;2.85;;
18383;SDS011;9318;48.644;9.456;2022-08-01T10:04:47;4.95;;;2.90;;
18383;SDS011;9318;48.644;9.456;2022-08-01T10:07:15;5.68;;;2.88;;
18383;SDS011;9318;48.644;9.456;2022-08-01T10:09:44;4.40;;;3.22;;
18383;SDS011;9318;48.644;9.456;2022-08-01T10:12:13;3.78;;;2.70;;
18383;SDS011;9318;48.644;9.456;2022-08-01T10:14:41;3.35;;;2.65;;
18383;SDS011;9318;48.644;9.456;2022-08-01T10:17:11;3.65;;;2.80;;
18383;SDS011;9318;48.644;9.456;2022-08-01T10:19:40;8.25;;;3.08;;
18383;SDS011;9318;48.644;9.456;2022-08-01T10:22:09;3.30;;;3.00;;
18383;SDS011;9318;48.644;9.456;2022-08-01T10:24:39;4.13;;;3.00;;
18383;SDS011;9318;48.644;9.456;2022-08-01T10:27:09;6.22;;;3.40;;
18383;SDS011;9318;48.644;9.456;2022-08-01T10:29:40;2.70;;;2.50;;
18383;SDS011;9318;48.644;9.456;2022-08-01T10:32:08;3.53;;;2.60;;
18383;SDS011;9318;48.644;9.456;2022-08-01T10:34:36;4.47;;;2.80;;
18383;SDS011;9318;48.644;9.456;2022-08-01T10:37:04;3.28;;;2.95;;
18383;SDS011;9318;48.644;9.456;2022-08-01T10:39:33;6.32;;;2.70;;
18383;SDS011;9318;48.644;9.456;2022-08-01T10:42:01;3.10;;;2.80;;
18383;SDS011;9318;48.644;9.456;2022-08-01T10:44:31;6.15;;;2.95;;
18383;SDS011;9318;48.644;9.456;2022-08-01T10:47:01;4.43;;;3.03;;
18383;SDS011;9318;48.644;9.456;2022-08-01T10:49:31;5.30;;;2.95;;
18383;SDS011;9318;48.644;9.456;2022-08-01T10:52:05;3.03;;;2.72;;
18383;SDS011;9318;48.644;9.456;2022-08-01T10:54:38;3.92;;;2.83;;
18383;SDS011;9318;48.644;9.456;2022-08-01T10:57:07;3.70;;;3.03;;
18383;SDS011;9318;48.644;9.456;2022-08-01T10:59:46;4.60;;;3.15;;
18383;SDS011;9318;48.644;9.456;2022-08-01T11:02:24;3.83;;;2.55;;
18383;SDS011;9318;48.644;9.456;2022-08-01T11:04:54;5.32;;;2.90;;
18383;SDS011;9318;48.644;9.456;2022-08-01T11:07:24;4.07;;;2.80;;
18383;SDS011;9318;48.644;9.456;2022-08-01T11:10:10;6.55;;;2.47;;
18383;SDS011;9318;48.644;9.456;2022-08-01T11:12:49;4.18;;;3.40;;
18383;SDS011;9318;48.644;9.456;2022-08-01T11:15:20;8.30;;;3.65;;
18383;SDS011;9318;48.644;9.456;2022-08-01T11:17:59;6.22;;;3.92;;
18383;SDS011;9318;48.644;9.456;2022-08-01T11:20:28;3.63;;;3.00;;
18383;SDS011;9318;48.644;9.456;2022-08-01T11:26:09;6.10;;;4.13;;
18383;SDS011;9318;48.644;9.456;2022-08-01T11:28:37;7.32;;;4.35;;
18383;SDS011;9318;48.644;9.456;2022-08-01T11:34:01;6.45;;;3.35;;
18383;SDS011;9318;48.644;9.456;2022-08-01T11:36:28;6.85;;;4.40;;
18383;SDS011;9318;48.644;9.456;2022-08-01T11:39:12;5.57;;;3.90;;
18383;SDS011;9318;48.644;9.456;2022-08-01T11:41:41;6.82;;;4.40;;
18383;SDS011;9318;48.644;9.456;2022-08-01T11:44:09;6.28;;;4.50;;
18383;SDS011;9318;48.644;9.456;2022-08-01T11:46:53;6.95;;;4.28;;
18383;SDS011;9318;48.644;9.456;2022-08-01T11:49:29;6.82;;;4.03;;
18383;SDS011;9318;48.644;9.456;2022-08-01T11:52:11;5.63;;;4.07;;
18383;SDS011;9318;48.644;9.456;2022-08-01T11:54:41;7.75;;;4.30;;
18383;SDS011;9318;48.644;9.456;2022-08-01T11:57:11;6.70;;;4.05;;
18383;SDS011;9318;48.644;9.456;2022-08-01T11:59:40;4.35;;;3.60;;
18383;SDS011;9318;48.644;9.456;2022-08-01T12:02:18;6.30;;;4.63;;
18383;SDS011;9318;48.644;9.456;2022-08-01T12:04:48;7.25;;;4.55;;
18383;SDS011;9318;48.644;9.456;2022-08-01T12:07:17;6.25;;;4.32;;
18383;SDS011;9318;48.644;9.456;2022-08-01T12:09:45;11.85;;;4.35;;
18383;SDS011;9318;48.644;9.456;2022-08-01T12:12:16;5.75;;;4.40;;
18383;SDS011;9318;48.644;9.456;2022-08-01T12:14:44;7.05;;;4.60;;
18383;SDS011;9318;48.644;9.456;2022-08-01T12:17:21;7.30;;;4.22;;
18383;SDS011;9318;48.644;9.456;2022-08-01T12:19:57;6.05;;;4.38;;
18383;SDS011;9318;48.644;9.456;2022-08-01T12:22:25;7.07;;;4.20;;
18383;SDS011;9318;48.644;9.456;2022-08-01T12:24:52;6.70;;;4.15;;
18383;SDS011;9318;48.644;9.456;2022-08-01T12:27:23;5.45;;;4.10;;
18383;SDS011;9318;48.644;9.456;2022-08-01T12:29:52;7.10;;;4.28;;
18383;SDS011;9318;48.644;9.456;2022-08-01T12:32:25;6.38;;;4.10;;
18383;SDS011;9318;48.644;9.456;2022-08-01T12:34:55;5.97;;;4.30;;
18383;SDS011;9318;48.644;9.456;2022-08-01T12:37:23;6.45;;;4.07;;
18383;SDS011;9318;48.644;9.456;2022-08-01T12:39:51;5.68;;;4.00;;
18383;SDS011;9318;48.644;9.456;2022-08-01T12:42:19;5.38;;;3.85;;
18383;SDS011;9318;48.644;9.456;2022-08-01T12:44:47;5.60;;;4.10;;
18383;SDS011;9318;48.644;9.456;2022-08-01T12:47:17;5.00;;;3.80;;
18383;SDS011;9318;48.644;9.456;2022-08-01T12:49:46;6.88;;;4.00;;
18383;SDS011;9318;48.644;9.456;2022-08-01T12:52:14;6.43;;;3.85;;
18383;SDS011;9318;48.644;9.456;2022-08-01T12:55:03;4.70;;;3.63;;
18383;SDS011;9318;48.644;9.456;2022-08-01T12:57:33;5.38;;;3.88;;
18383;SDS011;9318;48.644;9.456;2022-08-01T13:00:10;6.63;;;4.20;;
18383;SDS011;9318;48.644;9.456;2022-08-01T13:02:47;4.78;;;3.67;;
18383;SDS011;9318;48.644;9.456;2022-08-01T13:05:17;5.70;;;3.70;;
18383;SDS011;9318;48.644;9.456;2022-08-01T13:07:45;6.20;;;3.70;;
18383;SDS011;9318;48.644;9.456;2022-08-01T13:10:15;4.88;;;3.75;;
18383;SDS011;9318;48.644;9.456;2022-08-01T13:12:51;5.75;;;3.67;;
18383;SDS011;9318;48.644;9.456;2022-08-01T13:15:21;3.58;;;3.28;;
18383;SDS011;9318;48.644;9.456;2022-08-01T13:17:50;3.78;;;3.17;;
18383;SDS011;9318;48.644;9.456;2022-08-01T13:20:24;5.32;;;3.70;;
18383;SDS011;9318;48.644;9.456;2022-08-01T13:22:53;3.78;;;3.35;;
18383;SDS011;9318;48.644;9.456;2022-08-01T13:25:20;6.85;;;3.15;;
18383;SDS011;9318;48.644;9.456;2022-08-01T13:27:48;4.57;;;2.75;;
18383;SDS011;9318;48.644;9.456;2022-08-01T13:30:15;3.65;;;3.10;;
18383;SDS011;9318;48.644;9.456;2022-08-01T13:32:44;4.60;;;2.70;;
18383;SDS011;9318;48.644;9.456;2022-08-01T13:35:25;3.35;;;2.92;;
18383;SDS011;9318;48.644;9.456;2022-08-01T13:37:53;4.53;;;3.00;;
18383;SDS011;9318;48.644;9.456;2022-08-01T13:40:25;5.00;;;3.20;;
18383;SDS011;9318;48.644;9.456;2022-08-01T13:42:53;4.35;;;3.22;;
18383;SDS011;9318;48.644;9.456;2022-08-01T13:45:21;5.60;;;3.22;;
18383;SDS011;9318;48.644;9.456;2022-08-01T13:47:49;3.45;;;3.05;;
18383;SDS011;9318;48.644;9.456;2022-08-01T13:50:16;5.00;;;3.00;;
18383;SDS011;9318;48.644;9.456;2022-08-01T13:52:45;4.53;;;2.90;;
18383;SDS011;9318;48.644;9.456;2022-08-01T13:55:12;4.13;;;3.03;;
18383;SDS011;9318;48.644;9.456;2022-08-01T13:57:40;4.03;;;3.13;;
18383;SDS011;9318;48.644;9.456;2022-08-01T14:00:08;3.80;;;3.10;;
18383;SDS011;9318;48.644;9.456;2022-08-01T14:02:35;4.93;;;3.00;;
18383;SDS011;9318;48.644;9.456;2022-08-01T14:05:03;3.63;;;2.90;;
18383;SDS011;9318;48.644;9.456;2022-08-01T14:07:31;3.92;;;3.00;;
18383;SDS011;9318;48.644;9.456;2022-08-01T14:10:00;4.93;;;2.90;;
18383;SDS011;9318;48.644;9.456;2022-08-01T14:12:27;4.55;;;3.00;;
18383;SDS011;9318;48.644;9.456;2022-08-01T14:14:54;3.47;;;3.17;;
18383;SDS011;9318;48.644;9.456;2022-08-01T14:17:22;3.47;;;3.17;;
18383;SDS011;9318;48.644;9.456;2022-08-01T14:19:49;4.85;;;3.10;;
18383;SDS011;9318;48.644;9.456;2022-08-01T14:22:16;4.53;;;3.17;;
18383;SDS011;9318;48.644;9.456;2022-08-01T14:24:44;4.40;;;3.05;;
18383;SDS011;9318;48.644;9.456;2022-08-01T14:27:13;4.40;;;3.10;;
18383;SDS011;9318;48.644;9.456;2022-08-01T14:29:40;3.50;;;2.90;;
18383;SDS011;9318;48.644;9.456;2022-08-01T14:32:07;5.00;;;2.90;;
18383;SDS011;9318;48.644;9.456;2022-08-01T14:34:34;5.13;;;2.75;;
18383;SDS011;9318;48.644;9.456;2022-08-01T14:37:02;4.55;;;2.50;;
18383;SDS011;9318;48.644;9.456;2022-08-01T14:39:29;2.72;;;2.50;;
18383;SDS011;9318;48.644;9.456;2022-08-01T14:41:56;3.38;;;2.60;;
18383;SDS011;9318;48.644;9.456;2022-08-01T14:44:25;3.08;;;2.70;;
18383;SDS011;9318;48.644;9.456;2022-08-01T14:46:52;3.00;;;2.67;;
18383;SDS011;9318;48.644;9.456;2022-08-01T14:49:19;4.38;;;3.00;;
18383;SDS011;9318;48.644;9.456;2022-08-01T14:51:47;4.07;;;2.58;;
18383;SDS011;9318;48.644;9.456;2022-08-01T14:54:14;4.80;;;2.95;;
18383;SDS011;9318;48.644;9.456;2022-08-01T14:56:41;3.60;;;2.90;;
18383;SDS011;9318;48.644;9.456;2022-08-01T14:59:09;5.60;;;2.90;;
18383;SDS011;9318;48.644;9.456;2022-08-01T15:01:37;6.40;;;3.08;;
18383;SDS011;9318;48.644;9.456;2022-08-01T15:04:05;3.33;;;2.95;;
18383;SDS011;9318;48.644;9.456;2022-08-01T15:06:32;3.40;;;3.10;;
18383;SDS011;9318;48.644;9.456;2022-08-01T15:08:59;4.32;;;3.40;;
18383;SDS011;9318;48.644;9.456;2022-08-01T15:11:26;5.18;;;3.13;;
18383;SDS011;9318;48.644;9.456;2022-08-01T15:13:54;3.30;;;3.00;;
18383;SDS011;9318;48.644;9.456;2022-08-01T15:16:35;28.42;;;5.40;;
18383;SDS011;9318;48.644;9.456;2022-08-01T15:19:03;16.45;;;4.68;;
18383;SDS011;9318;48.644;9.456;2022-08-01T15:21:31;27.05;;;6.90;;